This is the latest recevied weather packets stored in our database for station/object KC9NBZ. If no packets are shown the sender has not sent any weather packets the latest 10 day(s).
| Time | Temp. | Humidity | Pressure | Rain* | Wind** | Luminosity | Snow |
|---|---|---|---|---|---|---|---|
| 1777382142 | 8.89° C | 83% | 1010 hPa | 0 mm | - | 172 W/m² | - |
| 1777379720 | 8.89° C | 85% | 1009.2 hPa | 0 mm | - | 88 W/m² | - |
| 1777377921 | 8.89° C | 83% | 1008.1 hPa | 0 mm | - | 45 W/m² | - |
| 1777373720 | 9.44° C | 84% | 1006.5 hPa | 0 mm | - | 2 W/m² | - |
| 1777368319 | 10° C | 89% | 1005 hPa | 0 mm | - | 0 W/m² | - |
| 1777363520 | 10° C | 94% | 1004 hPa | 0 mm | - | 0 W/m² | - |
| 1777362360 | 10.56° C | 92% | 1003.9 hPa | 0 mm | - | 0 W/m² | - |
| 1777357521 | 12.22° C | 89% | 1002.8 hPa | 0 mm | - | 0 W/m² | - |
| 1777353920 | 13.33° C | 89% | 1001.9 hPa | 0 mm | - | 0 W/m² | - |
| 1777353320 | 13.89° C | 89% | 1001.9 hPa | 0 mm | - | 0 W/m² | - |
| 1777350341 | 15.56° C | 91% | 1000.7 hPa | 0 mm | - | 0 W/m² | - |
| 1777346121 | 16.67° C | 92% | 1000.2 hPa | 0.25 mm | - | 0 W/m² | - |
| 1777344319 | 16.67° C | 91% | 999.5 hPa | 2.54 mm | - | 0 W/m² | - |
| 1777343721 | 17.22° C | 90% | 999.4 hPa | 2.54 mm | - | 0 W/m² | - |
| 1777337120 | 19.44° C | 84% | 998.6 hPa | 0 mm | - | 5 W/m² | - |
| 1777336519 | 19.44° C | 84% | 998.7 hPa | 0.25 mm | - | 8 W/m² | - |
| 1777335918 | 19.44° C | 83% | 998.7 hPa | 0.25 mm | - | 17 W/m² | - |
| 1777334121 | 20° C | 81% | 998.8 hPa | 0.25 mm | - | 53 W/m² | - |
| 1777331120 | 20° C | 80% | 999 hPa | 0 mm | - | 141 W/m² | - |
| 1777329940 | 20° C | 79% | 998.9 hPa | 0 mm | - | 262 W/m² | - |
| 1777329321 | 20° C | 78% | 998.9 hPa | 0 mm | - | 146 W/m² | - |
| 1777327519 | 18.89° C | 82% | 999.7 hPa | 0 mm | - | 122 W/m² | - |
| 1777325122 | 18.33° C | 82% | 999.7 hPa | 0 mm | - | 57 W/m² | - |
| 1777322721 | 17.78° C | 83% | 999.9 hPa | 0 mm | - | 114 W/m² | - |
| 1777316123 | 14.44° C | 93% | 999.9 hPa | 0 mm | - | 248 W/m² | - |
* Rain latest hour (hover to see other rain measurements)
** Current wind speed in m/s (hover to see current wind gust speed)